sensor_id;sensor_type;location;lat;lon;timestamp;P1;durP1;ratioP1;P2;durP2;ratioP2
79399;SDS011;68856;45.586;10.264;2023-05-20T00:01:05;3.63;;;2.78;;
79399;SDS011;68856;45.586;10.264;2023-05-20T00:03:31;4.00;;;3.22;;
79399;SDS011;68856;45.586;10.264;2023-05-20T00:05:57;5.30;;;3.05;;
79399;SDS011;68856;45.586;10.264;2023-05-20T00:08:23;3.20;;;2.90;;
79399;SDS011;68856;45.586;10.264;2023-05-20T00:10:49;4.18;;;3.20;;
79399;SDS011;68856;45.586;10.264;2023-05-20T00:13:15;4.05;;;3.53;;
79399;SDS011;68856;45.586;10.264;2023-05-20T00:15:41;3.65;;;3.03;;
79399;SDS011;68856;45.586;10.264;2023-05-20T00:18:08;5.28;;;3.33;;
79399;SDS011;68856;45.586;10.264;2023-05-20T00:20:34;3.53;;;2.85;;
79399;SDS011;68856;45.586;10.264;2023-05-20T00:23:00;7.18;;;3.53;;
79399;SDS011;68856;45.586;10.264;2023-05-20T00:25:26;7.07;;;3.15;;
79399;SDS011;68856;45.586;10.264;2023-05-20T00:27:52;3.97;;;3.58;;
79399;SDS011;68856;45.586;10.264;2023-05-20T00:30:18;3.78;;;2.60;;
79399;SDS011;68856;45.586;10.264;2023-05-20T00:32:44;6.68;;;3.13;;
79399;SDS011;68856;45.586;10.264;2023-05-20T00:35:10;6.13;;;3.20;;
79399;SDS011;68856;45.586;10.264;2023-05-20T00:37:37;4.40;;;3.28;;
79399;SDS011;68856;45.586;10.264;2023-05-20T00:40:03;3.58;;;3.00;;
79399;SDS011;68856;45.586;10.264;2023-05-20T00:42:29;5.45;;;3.28;;
79399;SDS011;68856;45.586;10.264;2023-05-20T00:44:55;3.80;;;3.40;;
79399;SDS011;68856;45.586;10.264;2023-05-20T00:47:22;4.38;;;3.42;;
79399;SDS011;68856;45.586;10.264;2023-05-20T00:49:50;6.28;;;3.28;;
79399;SDS011;68856;45.586;10.264;2023-05-20T00:52:19;3.92;;;2.70;;
79399;SDS011;68856;45.586;10.264;2023-05-20T00:54:45;3.35;;;2.85;;
79399;SDS011;68856;45.586;10.264;2023-05-20T00:57:12;4.55;;;2.80;;
79399;SDS011;68856;45.586;10.264;2023-05-20T00:59:38;3.00;;;2.65;;
79399;SDS011;68856;45.586;10.264;2023-05-20T01:02:04;2.88;;;2.35;;
79399;SDS011;68856;45.586;10.264;2023-05-20T01:04:31;2.88;;;2.53;;
79399;SDS011;68856;45.586;10.264;2023-05-20T01:06:58;2.90;;;2.30;;
79399;SDS011;68856;45.586;10.264;2023-05-20T01:09:26;2.10;;;1.90;;
79399;SDS011;68856;45.586;10.264;2023-05-20T01:11:57;1.98;;;1.80;;
79399;SDS011;68856;45.586;10.264;2023-05-20T01:14:25;2.25;;;2.05;;
79399;SDS011;68856;45.586;10.264;2023-05-20T01:16:52;1.90;;;1.80;;
79399;SDS011;68856;45.586;10.264;2023-05-20T01:19:53;2.13;;;1.77;;
79399;SDS011;68856;45.586;10.264;2023-05-20T01:22:13;3.28;;;2.35;;
79399;SDS011;68856;45.586;10.264;2023-05-20T01:24:40;2.20;;;2.00;;
79399;SDS011;68856;45.586;10.264;2023-05-20T01:27:08;2.47;;;2.10;;
79399;SDS011;68856;45.586;10.264;2023-05-20T01:29:36;1.90;;;1.70;;
79399;SDS011;68856;45.586;10.264;2023-05-20T01:32:06;1.80;;;1.67;;
79399;SDS011;68856;45.586;10.264;2023-05-20T01:34:34;1.92;;;1.83;;
79399;SDS011;68856;45.586;10.264;2023-05-20T01:37:01;1.77;;;1.60;;
79399;SDS011;68856;45.586;10.264;2023-05-20T01:39:28;2.13;;;2.03;;
79399;SDS011;68856;45.586;10.264;2023-05-20T01:41:54;3.08;;;1.90;;
79399;SDS011;68856;45.586;10.264;2023-05-20T01:44:21;2.67;;;2.45;;
79399;SDS011;68856;45.586;10.264;2023-05-20T01:46:48;2.28;;;2.08;;
79399;SDS011;68856;45.586;10.264;2023-05-20T01:49:14;2.70;;;2.50;;
79399;SDS011;68856;45.586;10.264;2023-05-20T01:51:40;3.15;;;2.53;;
79399;SDS011;68856;45.586;10.264;2023-05-20T01:54:06;3.92;;;2.47;;
79399;SDS011;68856;45.586;10.264;2023-05-20T01:56:33;4.90;;;2.30;;
79399;SDS011;68856;45.586;10.264;2023-05-20T01:58:59;5.03;;;2.53;;
79399;SDS011;68856;45.586;10.264;2023-05-20T02:01:25;4.95;;;2.60;;
79399;SDS011;68856;45.586;10.264;2023-05-20T02:03:51;4.22;;;2.83;;
79399;SDS011;68856;45.586;10.264;2023-05-20T02:06:17;3.70;;;2.53;;
79399;SDS011;68856;45.586;10.264;2023-05-20T02:08:43;6.57;;;2.40;;
79399;SDS011;68856;45.586;10.264;2023-05-20T02:11:09;2.50;;;2.17;;
79399;SDS011;68856;45.586;10.264;2023-05-20T02:13:35;3.13;;;2.28;;
79399;SDS011;68856;45.586;10.264;2023-05-20T02:16:01;3.47;;;2.30;;
79399;SDS011;68856;45.586;10.264;2023-05-20T02:18:27;2.00;;;1.90;;
79399;SDS011;68856;45.586;10.264;2023-05-20T02:20:53;1.83;;;1.73;;
79399;SDS011;68856;45.586;10.264;2023-05-20T02:23:19;4.47;;;2.55;;
79399;SDS011;68856;45.586;10.264;2023-05-20T02:25:45;2.40;;;2.20;;
79399;SDS011;68856;45.586;10.264;2023-05-20T02:28:11;3.30;;;2.30;;
79399;SDS011;68856;45.586;10.264;2023-05-20T02:30:37;2.50;;;1.92;;
79399;SDS011;68856;45.586;10.264;2023-05-20T02:33:04;4.07;;;2.75;;
79399;SDS011;68856;45.586;10.264;2023-05-20T02:35:31;3.60;;;2.40;;
79399;SDS011;68856;45.586;10.264;2023-05-20T02:37:57;3.67;;;2.40;;
79399;SDS011;68856;45.586;10.264;2023-05-20T02:40:23;3.38;;;2.15;;
79399;SDS011;68856;45.586;10.264;2023-05-20T02:42:49;2.08;;;1.88;;
79399;SDS011;68856;45.586;10.264;2023-05-20T02:45:15;2.70;;;1.60;;
79399;SDS011;68856;45.586;10.264;2023-05-20T02:47:41;3.38;;;2.25;;
79399;SDS011;68856;45.586;10.264;2023-05-20T02:50:08;2.05;;;1.85;;
79399;SDS011;68856;45.586;10.264;2023-05-20T02:52:34;1.88;;;1.77;;
79399;SDS011;68856;45.586;10.264;2023-05-20T02:55:00;2.92;;;2.72;;
79399;SDS011;68856;45.586;10.264;2023-05-20T02:57:26;3.05;;;1.95;;
79399;SDS011;68856;45.586;10.264;2023-05-20T02:59:52;2.90;;;2.00;;
79399;SDS011;68856;45.586;10.264;2023-05-20T03:02:18;4.63;;;2.38;;
79399;SDS011;68856;45.586;10.264;2023-05-20T03:04:45;4.20;;;3.13;;
79399;SDS011;68856;45.586;10.264;2023-05-20T03:07:11;2.70;;;2.50;;
79399;SDS011;68856;45.586;10.264;2023-05-20T03:09:37;4.65;;;2.30;;
79399;SDS011;68856;45.586;10.264;2023-05-20T03:12:03;2.65;;;2.28;;
79399;SDS011;68856;45.586;10.264;2023-05-20T03:14:29;4.32;;;2.10;;
79399;SDS011;68856;45.586;10.264;2023-05-20T03:16:55;11.23;;;2.20;;
79399;SDS011;68856;45.586;10.264;2023-05-20T03:19:21;2.55;;;2.20;;
79399;SDS011;68856;45.586;10.264;2023-05-20T03:21:47;2.00;;;1.77;;
79399;SDS011;68856;45.586;10.264;2023-05-20T03:24:14;2.03;;;1.83;;
79399;SDS011;68856;45.586;10.264;2023-05-20T03:26:40;3.53;;;1.80;;
79399;SDS011;68856;45.586;10.264;2023-05-20T03:29:08;1.95;;;1.70;;
79399;SDS011;68856;45.586;10.264;2023-05-20T03:31:34;3.13;;;1.83;;
79399;SDS011;68856;45.586;10.264;2023-05-20T03:34:01;2.80;;;2.03;;
79399;SDS011;68856;45.586;10.264;2023-05-20T03:36:27;2.60;;;1.98;;
79399;SDS011;68856;45.586;10.264;2023-05-20T03:38:53;2.47;;;2.20;;
79399;SDS011;68856;45.586;10.264;2023-05-20T03:41:19;4.40;;;2.10;;
79399;SDS011;68856;45.586;10.264;2023-05-20T03:43:46;3.13;;;2.38;;
79399;SDS011;68856;45.586;10.264;2023-05-20T03:46:12;2.47;;;2.28;;
79399;SDS011;68856;45.586;10.264;2023-05-20T03:48:38;1.95;;;1.80;;
79399;SDS011;68856;45.586;10.264;2023-05-20T03:51:05;2.13;;;1.80;;
79399;SDS011;68856;45.586;10.264;2023-05-20T03:53:31;1.83;;;1.65;;
79399;SDS011;68856;45.586;10.264;2023-05-20T03:55:57;3.47;;;1.55;;
79399;SDS011;68856;45.586;10.264;2023-05-20T03:58:23;3.63;;;1.70;;
79399;SDS011;68856;45.586;10.264;2023-05-20T04:00:50;1.70;;;1.60;;
79399;SDS011;68856;45.586;10.264;2023-05-20T04:03:16;2.47;;;1.67;;
79399;SDS011;68856;45.586;10.264;2023-05-20T04:05:42;3.05;;;1.60;;
79399;SDS011;68856;45.586;10.264;2023-05-20T04:08:08;2.42;;;1.80;;
79399;SDS011;68856;45.586;10.264;2023-05-20T04:10:37;1.70;;;1.60;;
79399;SDS011;68856;45.586;10.264;2023-05-20T04:13:05;1.98;;;1.77;;
79399;SDS011;68856;45.586;10.264;2023-05-20T04:15:34;3.53;;;1.52;;
79399;SDS011;68856;45.586;10.264;2023-05-20T04:18:01;1.55;;;1.45;;
79399;SDS011;68856;45.586;10.264;2023-05-20T04:20:27;1.85;;;1.65;;
79399;SDS011;68856;45.586;10.264;2023-05-20T04:22:53;1.70;;;1.60;;
79399;SDS011;68856;45.586;10.264;2023-05-20T04:25:19;2.00;;;1.75;;
79399;SDS011;68856;45.586;10.264;2023-05-20T04:27:45;1.73;;;1.63;;
79399;SDS011;68856;45.586;10.264;2023-05-20T04:30:12;2.08;;;1.50;;
79399;SDS011;68856;45.586;10.264;2023-05-20T04:32:38;2.08;;;1.50;;
79399;SDS011;68856;45.586;10.264;2023-05-20T04:35:05;3.20;;;1.60;;
79399;SDS011;68856;45.586;10.264;2023-05-20T04:37:35;1.40;;;1.30;;
79399;SDS011;68856;45.586;10.264;2023-05-20T04:40:01;1.98;;;1.83;;
79399;SDS011;68856;45.586;10.264;2023-05-20T04:42:31;2.33;;;1.67;;
79399;SDS011;68856;45.586;10.264;2023-05-20T04:44:57;2.17;;;1.20;;
79399;SDS011;68856;45.586;10.264;2023-05-20T04:47:26;3.20;;;1.38;;
79399;SDS011;68856;45.586;10.264;2023-05-20T04:49:54;1.88;;;1.67;;
79399;SDS011;68856;45.586;10.264;2023-05-20T04:52:22;3.92;;;1.83;;
79399;SDS011;68856;45.586;10.264;2023-05-20T04:54:48;2.58;;;1.70;;
79399;SDS011;68856;45.586;10.264;2023-05-20T04:57:15;1.60;;;1.50;;
79399;SDS011;68856;45.586;10.264;2023-05-20T04:59:41;1.50;;;1.40;;
79399;SDS011;68856;45.586;10.264;2023-05-20T05:02:09;1.63;;;1.52;;
79399;SDS011;68856;45.586;10.264;2023-05-20T05:04:35;2.28;;;1.40;;
79399;SDS011;68856;45.586;10.264;2023-05-20T05:07:01;3.47;;;1.90;;
79399;SDS011;68856;45.586;10.264;2023-05-20T05:09:29;1.58;;;1.48;;
79399;SDS011;68856;45.586;10.264;2023-05-20T05:11:55;1.77;;;1.67;;
79399;SDS011;68856;45.586;10.264;2023-05-20T05:14:21;3.65;;;2.28;;
79399;SDS011;68856;45.586;10.264;2023-05-20T05:16:47;2.45;;;1.60;;
79399;SDS011;68856;45.586;10.264;2023-05-20T05:19:14;2.80;;;1.95;;
79399;SDS011;68856;45.586;10.264;2023-05-20T05:21:40;2.90;;;1.85;;
79399;SDS011;68856;45.586;10.264;2023-05-20T05:24:06;1.65;;;1.52;;
79399;SDS011;68856;45.586;10.264;2023-05-20T05:26:32;3.63;;;1.95;;
79399;SDS011;68856;45.586;10.264;2023-05-20T05:28:58;2.58;;;1.88;;
79399;SDS011;68856;45.586;10.264;2023-05-20T05:31:24;6.65;;;2.53;;
79399;SDS011;68856;45.586;10.264;2023-05-20T05:33:50;4.68;;;2.08;;
79399;SDS011;68856;45.586;10.264;2023-05-20T05:36:16;3.25;;;2.30;;
79399;SDS011;68856;45.586;10.264;2023-05-20T05:38:43;3.80;;;2.30;;
79399;SDS011;68856;45.586;10.264;2023-05-20T05:41:09;2.90;;;2.70;;
79399;SDS011;68856;45.586;10.264;2023-05-20T05:43:35;7.05;;;3.33;;
79399;SDS011;68856;45.586;10.264;2023-05-20T05:46:01;2.70;;;2.22;;
79399;SDS011;68856;45.586;10.264;2023-05-20T05:48:29;2.95;;;2.45;;
79399;SDS011;68856;45.586;10.264;2023-05-20T05:50:55;4.40;;;2.78;;
79399;SDS011;68856;45.586;10.264;2023-05-20T05:53:21;3.88;;;2.40;;
79399;SDS011;68856;45.586;10.264;2023-05-20T05:55:47;2.42;;;2.22;;
79399;SDS011;68856;45.586;10.264;2023-05-20T05:58:13;2.55;;;2.30;;
79399;SDS011;68856;45.586;10.264;2023-05-20T06:00:39;2.67;;;2.30;;
79399;SDS011;68856;45.586;10.264;2023-05-20T06:03:05;4.03;;;2.63;;
79399;SDS011;68856;45.586;10.264;2023-05-20T06:05:31;3.63;;;2.50;;
79399;SDS011;68856;45.586;10.264;2023-05-20T06:07:57;3.38;;;2.78;;
79399;SDS011;68856;45.586;10.264;2023-05-20T06:10:24;3.92;;;2.80;;
79399;SDS011;68856;45.586;10.264;2023-05-20T06:12:50;2.78;;;2.58;;
79399;SDS011;68856;45.586;10.264;2023-05-20T06:15:16;4.20;;;2.83;;
79399;SDS011;68856;45.586;10.264;2023-05-20T06:17:42;2.67;;;2.47;;
79399;SDS011;68856;45.586;10.264;2023-05-20T06:20:08;3.80;;;2.90;;
79399;SDS011;68856;45.586;10.264;2023-05-20T06:22:35;5.57;;;3.08;;
79399;SDS011;68856;45.586;10.264;2023-05-20T06:25:01;3.38;;;2.97;;
79399;SDS011;68856;45.586;10.264;2023-05-20T06:27:27;3.35;;;2.70;;
79399;SDS011;68856;45.586;10.264;2023-05-20T06:29:53;4.07;;;2.58;;
79399;SDS011;68856;45.586;10.264;2023-05-20T06:32:19;4.05;;;2.50;;
79399;SDS011;68856;45.586;10.264;2023-05-20T06:34:45;2.72;;;2.25;;
79399;SDS011;68856;45.586;10.264;2023-05-20T06:37:11;3.00;;;2.50;;
79399;SDS011;68856;45.586;10.264;2023-05-20T06:39:38;4.18;;;2.58;;
79399;SDS011;68856;45.586;10.264;2023-05-20T06:42:04;3.13;;;2.50;;
79399;SDS011;68856;45.586;10.264;2023-05-20T06:44:30;2.63;;;2.38;;
79399;SDS011;68856;45.586;10.264;2023-05-20T06:46:56;2.92;;;2.40;;
79399;SDS011;68856;45.586;10.264;2023-05-20T06:49:22;2.85;;;2.58;;
79399;SDS011;68856;45.586;10.264;2023-05-20T06:51:48;3.50;;;2.20;;
79399;SDS011;68856;45.586;10.264;2023-05-20T06:54:15;2.40;;;2.20;;
79399;SDS011;68856;45.586;10.264;2023-05-20T06:56:41;3.65;;;2.70;;
79399;SDS011;68856;45.586;10.264;2023-05-20T06:59:08;4.60;;;2.30;;
79399;SDS011;68856;45.586;10.264;2023-05-20T07:01:34;2.53;;;2.33;;
79399;SDS011;68856;45.586;10.264;2023-05-20T07:04:00;3.67;;;2.33;;
79399;SDS011;68856;45.586;10.264;2023-05-20T07:06:26;2.95;;;2.50;;
79399;SDS011;68856;45.586;10.264;2023-05-20T07:08:54;3.38;;;2.40;;
79399;SDS011;68856;45.586;10.264;2023-05-20T07:11:20;4.18;;;2.60;;
79399;SDS011;68856;45.586;10.264;2023-05-20T07:13:47;3.80;;;2.50;;
79399;SDS011;68856;45.586;10.264;2023-05-20T07:16:13;3.08;;;2.80;;
79399;SDS011;68856;45.586;10.264;2023-05-20T07:18:39;4.38;;;2.78;;
79399;SDS011;68856;45.586;10.264;2023-05-20T07:21:05;4.65;;;3.05;;
79399;SDS011;68856;45.586;10.264;2023-05-20T07:23:31;2.95;;;2.60;;
79399;SDS011;68856;45.586;10.264;2023-05-20T07:25:57;3.97;;;2.67;;
79399;SDS011;68856;45.586;10.264;2023-05-20T07:28:23;2.78;;;2.47;;
79399;SDS011;68856;45.586;10.264;2023-05-20T07:30:49;2.90;;;2.70;;
79399;SDS011;68856;45.586;10.264;2023-05-20T07:33:16;3.28;;;2.90;;
79399;SDS011;68856;45.586;10.264;2023-05-20T07:35:42;3.20;;;2.90;;
79399;SDS011;68856;45.586;10.264;2023-05-20T07:38:09;3.10;;;2.83;;
79399;SDS011;68856;45.586;10.264;2023-05-20T07:40:36;3.38;;;2.53;;
79399;SDS011;68856;45.586;10.264;2023-05-20T07:43:04;3.50;;;2.90;;
79399;SDS011;68856;45.586;10.264;2023-05-20T07:45:31;3.38;;;3.08;;
79399;SDS011;68856;45.586;10.264;2023-05-20T07:47:57;4.57;;;2.75;;
79399;SDS011;68856;45.586;10.264;2023-05-20T07:50:23;5.82;;;3.95;;
79399;SDS011;68856;45.586;10.264;2023-05-20T07:52:50;3.45;;;2.80;;
79399;SDS011;68856;45.586;10.264;2023-05-20T07:55:16;3.65;;;2.83;;
79399;SDS011;68856;45.586;10.264;2023-05-20T07:57:42;3.78;;;3.08;;
79399;SDS011;68856;45.586;10.264;2023-05-20T08:00:08;3.13;;;2.83;;
79399;SDS011;68856;45.586;10.264;2023-05-20T08:02:36;3.85;;;2.80;;
79399;SDS011;68856;45.586;10.264;2023-05-20T08:05:02;2.90;;;2.70;;
79399;SDS011;68856;45.586;10.264;2023-05-20T08:07:29;3.15;;;2.70;;
79399;SDS011;68856;45.586;10.264;2023-05-20T08:09:55;3.53;;;2.80;;
79399;SDS011;68856;45.586;10.264;2023-05-20T08:12:21;5.10;;;3.15;;
79399;SDS011;68856;45.586;10.264;2023-05-20T08:14:47;6.97;;;3.28;;
79399;SDS011;68856;45.586;10.264;2023-05-20T08:17:13;3.75;;;3.00;;
79399;SDS011;68856;45.586;10.264;2023-05-20T08:19:40;4.20;;;3.53;;
79399;SDS011;68856;45.586;10.264;2023-05-20T08:22:06;3.95;;;3.45;;
79399;SDS011;68856;45.586;10.264;2023-05-20T08:24:32;5.28;;;3.78;;
79399;SDS011;68856;45.586;10.264;2023-05-20T08:26:58;7.82;;;3.95;;
79399;SDS011;68856;45.586;10.264;2023-05-20T08:29:25;3.75;;;3.35;;
79399;SDS011;68856;45.586;10.264;2023-05-20T08:31:51;4.82;;;4.00;;
79399;SDS011;68856;45.586;10.264;2023-05-20T08:34:17;7.68;;;3.70;;
79399;SDS011;68856;45.586;10.264;2023-05-20T08:36:43;5.75;;;4.03;;
79399;SDS011;68856;45.586;10.264;2023-05-20T08:39:10;4.60;;;3.50;;
79399;SDS011;68856;45.586;10.264;2023-05-20T08:41:36;5.32;;;3.75;;
79399;SDS011;68856;45.586;10.264;2023-05-20T08:44:02;5.47;;;3.90;;
79399;SDS011;68856;45.586;10.264;2023-05-20T08:46:30;3.65;;;3.33;;
79399;SDS011;68856;45.586;10.264;2023-05-20T08:48:57;4.00;;;3.42;;
79399;SDS011;68856;45.586;10.264;2023-05-20T08:51:23;5.55;;;3.58;;
79399;SDS011;68856;45.586;10.264;2023-05-20T08:53:51;4.18;;;3.78;;
79399;SDS011;68856;45.586;10.264;2023-05-20T08:56:17;3.47;;;3.17;;
79399;SDS011;68856;45.586;10.264;2023-05-20T08:58:43;3.78;;;3.05;;
79399;SDS011;68856;45.586;10.264;2023-05-20T09:01:11;7.20;;;3.47;;
79399;SDS011;68856;45.586;10.264;2023-05-20T09:03:37;10.02;;;6.80;;
79399;SDS011;68856;45.586;10.264;2023-05-20T09:06:03;3.78;;;3.38;;
79399;SDS011;68856;45.586;10.264;2023-05-20T09:08:30;4.10;;;3.45;;
79399;SDS011;68856;45.586;10.264;2023-05-20T09:10:56;3.97;;;3.53;;
79399;SDS011;68856;45.586;10.264;2023-05-20T09:13:22;5.78;;;3.70;;
79399;SDS011;68856;45.586;10.264;2023-05-20T09:15:48;4.13;;;3.55;;
79399;SDS011;68856;45.586;10.264;2023-05-20T09:18:14;6.50;;;3.97;;
79399;SDS011;68856;45.586;10.264;2023-05-20T09:20:41;4.93;;;3.63;;
79399;SDS011;68856;45.586;10.264;2023-05-20T09:23:07;5.00;;;3.70;;
79399;SDS011;68856;45.586;10.264;2023-05-20T09:25:34;8.35;;;4.50;;
79399;SDS011;68856;45.586;10.264;2023-05-20T09:28:04;4.57;;;4.07;;
79399;SDS011;68856;45.586;10.264;2023-05-20T09:30:30;4.90;;;3.40;;
79399;SDS011;68856;45.586;10.264;2023-05-20T09:32:57;5.47;;;4.07;;
79399;SDS011;68856;45.586;10.264;2023-05-20T09:35:24;5.35;;;4.40;;
79399;SDS011;68856;45.586;10.264;2023-05-20T09:37:51;7.57;;;4.70;;
79399;SDS011;68856;45.586;10.264;2023-05-20T09:40:24;4.80;;;4.30;;
79399;SDS011;68856;45.586;10.264;2023-05-20T09:45:16;5.57;;;4.10;;
79399;SDS011;68856;45.586;10.264;2023-05-20T09:47:42;5.00;;;3.55;;
79399;SDS011;68856;45.586;10.264;2023-05-20T09:50:10;4.65;;;3.95;;
79399;SDS011;68856;45.586;10.264;2023-05-20T09:52:37;6.20;;;4.22;;
79399;SDS011;68856;45.586;10.264;2023-05-20T09:55:07;4.88;;;3.33;;
79399;SDS011;68856;45.586;10.264;2023-05-20T09:57:34;6.47;;;4.35;;
79399;SDS011;68856;45.586;10.264;2023-05-20T10:00:01;7.00;;;3.80;;
79399;SDS011;68856;45.586;10.264;2023-05-20T10:02:29;8.02;;;4.00;;
79399;SDS011;68856;45.586;10.264;2023-05-20T10:04:55;4.50;;;3.20;;
79399;SDS011;68856;45.586;10.264;2023-05-20T10:12:36;8.23;;;4.35;;
79399;SDS011;68856;45.586;10.264;2023-05-20T10:17:50;6.47;;;3.20;;
79399;SDS011;68856;45.586;10.264;2023-05-20T10:20:18;3.55;;;2.70;;
79399;SDS011;68856;45.586;10.264;2023-05-20T10:22:53;4.50;;;2.78;;
79399;SDS011;68856;45.586;10.264;2023-05-20T10:25:24;3.80;;;2.92;;
79399;SDS011;68856;45.586;10.264;2023-05-20T10:30:22;3.33;;;3.03;;
79399;SDS011;68856;45.586;10.264;2023-05-20T10:32:51;3.28;;;2.67;;
79399;SDS011;68856;45.586;10.264;2023-05-20T10:35:21;13.27;;;7.95;;
79399;SDS011;68856;45.586;10.264;2023-05-20T10:37:50;3.60;;;2.80;;
79399;SDS011;68856;45.586;10.264;2023-05-20T10:40:20;5.65;;;2.72;;
79399;SDS011;68856;45.586;10.264;2023-05-20T10:42:46;8.05;;;5.90;;
79399;SDS011;68856;45.586;10.264;2023-05-20T10:45:26;6.45;;;4.18;;
79399;SDS011;68856;45.586;10.264;2023-05-20T10:47:53;3.13;;;2.83;;
79399;SDS011;68856;45.586;10.264;2023-05-20T10:50:27;5.10;;;3.08;;
79399;SDS011;68856;45.586;10.264;2023-05-20T10:52:54;3.83;;;2.92;;
79399;SDS011;68856;45.586;10.264;2023-05-20T10:55:20;3.78;;;3.10;;
79399;SDS011;68856;45.586;10.264;2023-05-20T10:57:47;4.97;;;2.95;;
79399;SDS011;68856;45.586;10.264;2023-05-20T11:00:13;4.22;;;3.10;;
79399;SDS011;68856;45.586;10.264;2023-05-20T11:02:40;4.00;;;3.03;;
79399;SDS011;68856;45.586;10.264;2023-05-20T11:05:09;3.88;;;2.95;;
79399;SDS011;68856;45.586;10.264;2023-05-20T11:07:36;7.83;;;3.30;;
79399;SDS011;68856;45.586;10.264;2023-05-20T11:10:06;3.92;;;2.83;;
79399;SDS011;68856;45.586;10.264;2023-05-20T11:12:32;4.90;;;3.00;;
79399;SDS011;68856;45.586;10.264;2023-05-20T11:14:59;3.60;;;2.70;;
79399;SDS011;68856;45.586;10.264;2023-05-20T11:17:26;5.47;;;3.10;;
79399;SDS011;68856;45.586;10.264;2023-05-20T11:19:53;5.22;;;3.42;;
79399;SDS011;68856;45.586;10.264;2023-05-20T11:22:19;4.07;;;3.50;;
79399;SDS011;68856;45.586;10.264;2023-05-20T11:24:45;5.03;;;3.63;;
79399;SDS011;68856;45.586;10.264;2023-05-20T11:27:11;4.78;;;3.65;;
79399;SDS011;68856;45.586;10.264;2023-05-20T11:29:38;8.38;;;3.72;;
79399;SDS011;68856;45.586;10.264;2023-05-20T11:32:06;5.93;;;3.67;;
79399;SDS011;68856;45.586;10.264;2023-05-20T11:34:35;4.25;;;3.20;;
79399;SDS011;68856;45.586;10.264;2023-05-20T11:37:05;4.25;;;3.47;;
79399;SDS011;68856;45.586;10.264;2023-05-20T11:39:32;4.35;;;3.50;;
79399;SDS011;68856;45.586;10.264;2023-05-20T11:41:58;5.47;;;3.45;;
79399;SDS011;68856;45.586;10.264;2023-05-20T11:44:24;4.75;;;3.47;;
79399;SDS011;68856;45.586;10.264;2023-05-20T11:46:50;6.40;;;3.47;;
79399;SDS011;68856;45.586;10.264;2023-05-20T11:49:16;6.43;;;4.00;;
79399;SDS011;68856;45.586;10.264;2023-05-20T11:51:43;5.95;;;3.67;;
79399;SDS011;68856;45.586;10.264;2023-05-20T11:54:09;3.55;;;3.20;;
79399;SDS011;68856;45.586;10.264;2023-05-20T11:56:36;4.22;;;3.50;;
79399;SDS011;68856;45.586;10.264;2023-05-20T11:59:03;4.15;;;3.53;;
79399;SDS011;68856;45.586;10.264;2023-05-20T12:01:30;4.47;;;3.63;;
79399;SDS011;68856;45.586;10.264;2023-05-20T12:03:57;4.68;;;3.38;;
79399;SDS011;68856;45.586;10.264;2023-05-20T12:06:24;3.97;;;3.50;;
79399;SDS011;68856;45.586;10.264;2023-05-20T12:08:50;3.45;;;3.15;;
79399;SDS011;68856;45.586;10.264;2023-05-20T12:11:16;3.80;;;3.10;;
79399;SDS011;68856;45.586;10.264;2023-05-20T12:13:42;3.50;;;3.20;;
79399;SDS011;68856;45.586;10.264;2023-05-20T12:16:08;4.25;;;3.42;;
79399;SDS011;68856;45.586;10.264;2023-05-20T12:18:34;3.50;;;3.20;;
79399;SDS011;68856;45.586;10.264;2023-05-20T12:21:01;4.78;;;2.78;;
79399;SDS011;68856;45.586;10.264;2023-05-20T12:23:27;4.43;;;3.42;;
79399;SDS011;68856;45.586;10.264;2023-05-20T12:25:57;6.25;;;3.80;;
79399;SDS011;68856;45.586;10.264;2023-05-20T12:28:24;3.92;;;3.35;;
79399;SDS011;68856;45.586;10.264;2023-05-20T12:30:50;4.88;;;3.08;;
79399;SDS011;68856;45.586;10.264;2023-05-20T12:33:16;4.03;;;3.22;;
79399;SDS011;68856;45.586;10.264;2023-05-20T12:35:42;5.22;;;3.42;;
79399;SDS011;68856;45.586;10.264;2023-05-20T12:38:08;4.60;;;3.65;;
79399;SDS011;68856;45.586;10.264;2023-05-20T12:40:35;3.75;;;2.97;;
79399;SDS011;68856;45.586;10.264;2023-05-20T12:43:01;4.05;;;3.42;;
79399;SDS011;68856;45.586;10.264;2023-05-20T12:45:28;5.95;;;3.72;;
79399;SDS011;68856;45.586;10.264;2023-05-20T12:47:54;4.65;;;3.47;;
79399;SDS011;68856;45.586;10.264;2023-05-20T12:50:21;5.65;;;3.53;;
79399;SDS011;68856;45.586;10.264;2023-05-20T12:52:47;6.10;;;3.45;;
79399;SDS011;68856;45.586;10.264;2023-05-20T12:55:13;6.15;;;4.07;;
79399;SDS011;68856;45.586;10.264;2023-05-20T12:57:39;7.07;;;4.22;;
79399;SDS011;68856;45.586;10.264;2023-05-20T13:00:09;6.15;;;3.83;;
79399;SDS011;68856;45.586;10.264;2023-05-20T13:05:02;3.75;;;2.97;;
79399;SDS011;68856;45.586;10.264;2023-05-20T13:07:29;4.80;;;3.38;;
79399;SDS011;68856;45.586;10.264;2023-05-20T13:09:56;3.38;;;2.97;;
79399;SDS011;68856;45.586;10.264;2023-05-20T13:12:22;4.40;;;3.20;;
79399;SDS011;68856;45.586;10.264;2023-05-20T13:14:48;5.88;;;3.47;;
79399;SDS011;68856;45.586;10.264;2023-05-20T13:17:14;3.55;;;3.15;;
79399;SDS011;68856;45.586;10.264;2023-05-20T13:19:40;4.28;;;3.30;;
79399;SDS011;68856;45.586;10.264;2023-05-20T13:22:06;3.83;;;3.25;;
79399;SDS011;68856;45.586;10.264;2023-05-20T13:24:36;4.30;;;3.33;;
79399;SDS011;68856;45.586;10.264;2023-05-20T13:27:02;4.35;;;3.95;;
79399;SDS011;68856;45.586;10.264;2023-05-20T13:29:29;3.75;;;3.40;;
79399;SDS011;68856;45.586;10.264;2023-05-20T13:31:55;4.93;;;3.60;;
79399;SDS011;68856;45.586;10.264;2023-05-20T13:34:22;4.03;;;3.63;;
79399;SDS011;68856;45.586;10.264;2023-05-20T13:36:48;4.47;;;3.72;;
79399;SDS011;68856;45.586;10.264;2023-05-20T13:39:14;4.35;;;3.55;;
79399;SDS011;68856;45.586;10.264;2023-05-20T13:41:41;6.65;;;4.13;;
79399;SDS011;68856;45.586;10.264;2023-05-20T13:44:07;6.03;;;4.10;;
79399;SDS011;68856;45.586;10.264;2023-05-20T13:46:33;4.88;;;3.75;;
79399;SDS011;68856;45.586;10.264;2023-05-20T13:49:00;6.00;;;4.05;;
79399;SDS011;68856;45.586;10.264;2023-05-20T13:51:26;4.78;;;3.80;;
79399;SDS011;68856;45.586;10.264;2023-05-20T13:53:52;5.35;;;4.22;;
79399;SDS011;68856;45.586;10.264;2023-05-20T13:56:18;4.68;;;3.97;;
79399;SDS011;68856;45.586;10.264;2023-05-20T13:58:45;8.85;;;4.20;;
79399;SDS011;68856;45.586;10.264;2023-05-20T14:01:12;5.30;;;4.35;;
79399;SDS011;68856;45.586;10.264;2023-05-20T14:03:39;5.95;;;3.63;;
79399;SDS011;68856;45.586;10.264;2023-05-20T14:06:06;3.97;;;3.40;;
79399;SDS011;68856;45.586;10.264;2023-05-20T14:08:32;3.47;;;2.97;;
79399;SDS011;68856;45.586;10.264;2023-05-20T14:10:59;4.15;;;3.47;;
79399;SDS011;68856;45.586;10.264;2023-05-20T14:13:25;4.20;;;3.80;;
79399;SDS011;68856;45.586;10.264;2023-05-20T14:15:51;5.88;;;3.95;;
79399;SDS011;68856;45.586;10.264;2023-05-20T14:18:19;3.88;;;3.45;;
79399;SDS011;68856;45.586;10.264;2023-05-20T14:20:45;5.05;;;3.90;;
79399;SDS011;68856;45.586;10.264;2023-05-20T14:23:11;4.03;;;2.95;;
79399;SDS011;68856;45.586;10.264;2023-05-20T14:25:38;6.18;;;3.95;;
79399;SDS011;68856;45.586;10.264;2023-05-20T14:28:04;4.15;;;3.78;;
79399;SDS011;68856;45.586;10.264;2023-05-20T14:30:30;5.30;;;4.03;;
79399;SDS011;68856;45.586;10.264;2023-05-20T14:32:57;5.07;;;3.78;;
79399;SDS011;68856;45.586;10.264;2023-05-20T14:35:23;4.95;;;3.92;;
79399;SDS011;68856;45.586;10.264;2023-05-20T14:37:49;4.55;;;4.15;;
79399;SDS011;68856;45.586;10.264;2023-05-20T14:40:15;4.93;;;3.80;;
79399;SDS011;68856;45.586;10.264;2023-05-20T14:42:41;3.97;;;3.35;;
79399;SDS011;68856;45.586;10.264;2023-05-20T14:45:07;4.93;;;4.05;;